Time;durP1;ratioP1;P1;durP2;ratioP2;P2;SDS_P1;SDS_P2;PMS_P1;PMS_P2;Temp;Humidity;BMP_temperature;BMP_pressure;BME280_temperature;BME280_humidity;BME280_pressure;Samples;Min_cycle;Max_cycle;Signal;HPM_P1;HPM_P2
2022/12/25 00:01:10;;;;;;;178.50;40.40;;;5.10;99.90;;;;;;7360887;19;20015;-53
2022/12/25 00:03:38;;;;;;;163.55;40.63;;;5.10;99.90;;;;;;7362094;19;20017;-53
2022/12/25 00:06:05;;;;;;;130.27;36.40;;;5.10;99.90;;;;;;7361212;19;20014;-53
2022/12/25 00:08:32;;;;;;;120.20;38.33;;;5.10;99.90;;;;;;7364220;19;20504;-53
2022/12/25 00:11:01;;;;;;;127.32;37.45;;;5.10;99.90;;;;;;7360914;19;20015;-52
2022/12/25 00:13:28;;;;;;;125.72;38.35;;;5.20;99.90;;;;;;7361528;19;20047;-54
2022/12/25 00:15:54;;;;;;;125.35;37.63;;;5.20;99.90;;;;;;7364487;19;20474;-52
2022/12/25 00:18:21;;;;;;;145.90;39.88;;;5.30;99.90;;;;;;7362583;19;20512;-53
2022/12/25 00:20:58;;;;;;;140.18;40.70;;;5.20;99.90;;;;;;7364087;19;20081;-53
2022/12/25 00:23:25;;;;;;;176.02;43.63;;;5.20;99.90;;;;;;7363025;19;20440;-53
2022/12/25 00:25:52;;;;;;;126.07;37.35;;;5.10;99.90;;;;;;7361938;19;20022;-53
2022/12/25 00:28:19;;;;;;;136.20;39.20;;;5.10;99.90;;;;;;7362642;19;20026;-52
2022/12/25 00:30:46;;;;;;;118.63;38.35;;;5.10;99.90;;;;;;7358694;19;20872;-52
2022/12/25 00:33:13;;;;;;;105.57;36.38;;;5.10;99.90;;;;;;7359963;19;20564;-50
2022/12/25 00:35:40;;;;;;;112.68;36.75;;;5.10;99.90;;;;;;7362488;19;20594;-50
2022/12/25 00:38:07;;;;;;;134.35;38.67;;;5.20;99.90;;;;;;7361789;19;20062;-53
2022/12/25 00:40:33;;;;;;;134.90;39.13;;;5.30;99.90;;;;;;7362050;19;20018;-53
2022/12/25 00:42:59;;;;;;;135.80;41.63;;;5.40;99.90;;;;;;7359932;19;20386;-53
2022/12/25 00:45:25;;;;;;;109.88;38.05;;;5.30;99.90;;;;;;7359352;19;20015;-54
2022/12/25 00:47:52;;;;;;;131.38;38.13;;;5.40;99.90;;;;;;7359161;19;20034;-51
2022/12/25 00:50:18;;;;;;;121.30;39.17;;;5.50;99.90;;;;;;7362214;19;20114;-52
2022/12/25 00:52:45;;;;;;;126.47;39.00;;;5.50;99.90;;;;;;7363383;19;20018;-53
2022/12/25 00:55:11;;;;;;;125.90;37.72;;;5.60;99.90;;;;;;7363578;19;20057;-53
2022/12/25 00:57:37;;;;;;;123.20;38.13;;;5.60;99.90;;;;;;7357898;19;20039;-52
2022/12/25 01:00:04;;;;;;;129.00;36.95;;;5.70;99.90;;;;;;7364872;19;20061;-54
2022/12/25 01:02:30;;;;;;;149.98;42.03;;;5.70;99.90;;;;;;7366231;19;20033;-54
2022/12/25 01:04:57;;;;;;;137.00;39.70;;;5.80;99.90;;;;;;7366760;19;20047;-54
2022/12/25 01:07:25;;;;;;;141.20;42.08;;;5.90;99.90;;;;;;7370215;19;20360;-52
2022/12/25 01:12:53;;;;;;;161.43;43.17;;;5.80;99.90;;;;;;7363684;19;20031;-53
2022/12/25 01:15:19;;;;;;;178.98;45.28;;;5.90;99.90;;;;;;7369334;19;20813;-52
2022/12/25 01:17:45;;;;;;;151.07;42.25;;;5.90;99.90;;;;;;7369448;19;20028;-53
2022/12/25 01:20:16;;;;;;;195.68;46.05;;;5.90;99.90;;;;;;7366733;19;20734;-51
2022/12/25 01:22:43;;;;;;;191.07;46.35;;;5.90;99.90;;;;;;7364622;19;20022;-49
2022/12/25 01:25:11;;;;;;;179.07;46.60;;;5.90;99.90;;;;;;7362910;19;20035;-49
2022/12/25 01:27:39;;;;;;;269.85;53.58;;;5.90;99.90;;;;;;7368628;19;20454;-53
2022/12/25 01:30:06;;;;;;;217.23;49.28;;;5.90;99.90;;;;;;7364024;19;20359;-53
2022/12/25 01:32:33;;;;;;;230.05;53.85;;;5.90;99.90;;;;;;7362393;19;20015;-48
2022/12/25 01:34:59;;;;;;;174.85;47.78;;;6.00;99.90;;;;;;7360220;19;20388;-50
2022/12/25 01:37:25;;;;;;;156.13;45.00;;;6.00;99.90;;;;;;7367815;19;20035;-50
2022/12/25 01:39:52;;;;;;;140.10;40.90;;;6.00;99.90;;;;;;7367867;19;20022;-53
2022/12/25 01:42:22;;;;;;;127.63;39.95;;;6.00;99.90;;;;;;7369880;19;20018;-49
2022/12/25 01:44:49;;;;;;;123.00;38.42;;;6.00;99.90;;;;;;7365863;19;20022;-45
2022/12/25 01:47:16;;;;;;;130.77;38.70;;;6.00;99.90;;;;;;7369840;19;20127;-52
2022/12/25 01:49:48;;;;;;;119.13;38.95;;;6.00;99.90;;;;;;7364070;19;20037;-51
2022/12/25 01:52:22;;;;;;;112.38;38.45;;;6.10;99.90;;;;;;7368029;19;20354;-50
2022/12/25 01:54:56;;;;;;;115.72;37.10;;;6.10;99.90;;;;;;7366249;19;20366;-47
2022/12/25 01:57:30;;;;;;;108.75;36.75;;;6.10;99.90;;;;;;7369113;19;20513;-48
2022/12/25 01:59:58;;;;;;;108.55;35.83;;;6.10;99.90;;;;;;7366224;19;20026;-46
2022/12/25 02:02:27;;;;;;;100.82;35.97;;;6.10;99.90;;;;;;7361921;19;20041;-49
2022/12/25 02:05:00;;;;;;;109.70;35.92;;;6.10;99.90;;;;;;7364852;19;20033;-49
2022/12/25 02:07:28;;;;;;;109.75;37.60;;;6.10;99.90;;;;;;7369735;19;20018;-46
2022/12/25 02:09:55;;;;;;;132.73;38.22;;;6.10;99.90;;;;;;7364661;19;20385;-47
2022/12/25 02:12:28;;;;;;;108.68;36.50;;;6.20;99.90;;;;;;7366226;19;20025;-51
2022/12/25 02:14:58;;;;;;;103.28;35.58;;;6.10;99.90;;;;;;7367211;19;20379;-50
2022/12/25 02:17:44;;;;;;;118.43;34.75;;;6.10;99.90;;;;;;7367517;19;20481;-49
2022/12/25 02:21:08;;;;;;;102.75;32.90;;;6.10;99.90;;;;;;7371512;19;20133;-49
2022/12/25 02:23:38;;;;;;;94.22;31.95;;;6.10;99.90;;;;;;7362308;19;20011;-48
2022/12/25 02:26:23;;;;;;;108.28;35.50;;;6.20;99.90;;;;;;7358805;19;20023;-48
2022/12/25 02:29:04;;;;;;;91.30;33.40;;;6.20;99.90;;;;;;7368411;19;20014;-51
2022/12/25 02:31:36;;;;;;;114.95;33.95;;;6.20;99.90;;;;;;7375850;19;20026;-48
2022/12/25 02:34:20;;;;;;;100.53;33.67;;;6.30;99.90;;;;;;7377027;19;20015;-48
2022/12/25 02:36:56;;;;;;;110.32;32.85;;;6.40;99.90;;;;;;7362972;19;20029;-46
2022/12/25 02:39:56;;;;;;;89.88;32.67;;;6.40;99.90;;;;;;7369586;19;20026;-48
2022/12/25 03:08:16;;;;;;;93.35;31.33;;;6.90;99.90;;;;;;7361960;19;20029;-50
2022/12/25 03:13:40;;;;;;;94.95;31.23;;;7.00;99.90;;;;;;7357831;19;20022;-49
2022/12/25 03:18:56;;;;;;;115.97;32.83;;;7.10;99.90;;;;;;7358644;19;20025;-48
2022/12/25 03:26:55;;;;;;;99.78;30.95;;;7.10;99.90;;;;;;7361333;19;20043;-47
2022/12/25 03:32:37;;;;;;;86.07;30.27;;;7.20;99.90;;;;;;7359994;19;20477;-49
2022/12/25 03:35:31;;;;;;;80.10;30.48;;;7.20;99.90;;;;;;7362342;19;20018;-49
2022/12/25 04:36:30;;;;;;;87.75;34.00;;;7.80;99.90;;;;;;7366775;19;20022;-51
2022/12/25 04:38:58;;;;;;;97.80;35.10;;;7.80;99.90;;;;;;7363065;19;20029;-48
2022/12/25 04:41:24;;;;;;;88.03;34.17;;;7.80;99.90;;;;;;7365225;19;20506;-47
2022/12/25 04:43:50;;;;;;;95.00;34.42;;;7.80;99.90;;;;;;7365145;19;20049;-50
2022/12/25 04:46:17;;;;;;;106.25;37.40;;;7.80;99.90;;;;;;7368460;19;20018;-47
2022/12/25 04:48:43;;;;;;;96.75;36.22;;;7.90;99.90;;;;;;7367588;19;20446;-49
2022/12/25 04:51:16;;;;;;;104.50;35.75;;;7.90;99.90;;;;;;7367778;19;20030;-49
2022/12/25 04:53:45;;;;;;;99.60;36.85;;;7.90;99.90;;;;;;7367965;19;20029;-50
2022/12/25 04:56:12;;;;;;;99.47;37.38;;;7.90;99.90;;;;;;7367170;19;20014;-52
2022/12/25 04:58:38;;;;;;;107.18;36.17;;;8.00;99.90;;;;;;7368340;19;20584;-52
2022/12/25 05:01:05;;;;;;;100.63;37.55;;;7.90;99.90;;;;;;7367890;19;20090;-51
2022/12/25 05:03:32;;;;;;;108.05;37.03;;;8.00;99.90;;;;;;7369474;19;20103;-51
2022/12/25 05:05:59;;;;;;;100.13;37.50;;;8.00;99.90;;;;;;7367935;19;20026;-51
2022/12/25 05:08:28;;;;;;;105.60;38.28;;;8.00;99.90;;;;;;7371817;19;20612;-50
2022/12/25 05:10:54;;;;;;;106.47;38.22;;;8.10;99.90;;;;;;7362089;19;21383;-50
2022/12/25 05:13:21;;;;;;;125.63;40.92;;;8.10;99.90;;;;;;7369094;19;20035;-51
2022/12/25 05:15:47;;;;;;;113.72;38.53;;;8.10;99.90;;;;;;7365887;19;20022;-48
2022/12/25 05:18:13;;;;;;;104.40;38.35;;;8.10;99.90;;;;;;7369012;19;20010;-52
2022/12/25 05:20:40;;;;;;;112.40;40.05;;;8.10;99.90;;;;;;7366662;19;20081;-50
2022/12/25 05:23:11;;;;;;;104.65;36.00;;;8.10;99.90;;;;;;7367381;19;20026;-51
2022/12/25 05:25:39;;;;;;;110.07;37.58;;;8.10;99.90;;;;;;7364449;19;20022;-51
2022/12/25 05:28:06;;;;;;;111.93;39.88;;;8.20;99.90;;;;;;7363445;19;20513;-50
2022/12/25 05:30:35;;;;;;;108.93;38.97;;;8.10;99.90;;;;;;7361633;19;20022;-48
2022/12/25 05:33:04;;;;;;;106.75;39.05;;;8.20;99.90;;;;;;7367224;19;20014;-50
2022/12/25 05:35:30;;;;;;;105.78;38.25;;;8.30;99.90;;;;;;7370104;19;20021;-51
2022/12/25 05:37:57;;;;;;;119.30;40.10;;;8.20;99.90;;;;;;7367193;19;20074;-52
2022/12/25 05:40:23;;;;;;;100.03;39.10;;;8.30;99.90;;;;;;7368167;19;20033;-51
2022/12/25 05:42:49;;;;;;;106.88;39.35;;;8.30;99.90;;;;;;7368777;19;20031;-52
2022/12/25 05:45:16;;;;;;;111.57;39.95;;;8.30;99.90;;;;;;7366786;19;20026;-52
2022/12/25 05:47:42;;;;;;;99.13;38.60;;;8.40;99.90;;;;;;7367038;19;20490;-50
2022/12/25 05:50:08;;;;;;;100.47;40.13;;;8.40;99.90;;;;;;7361724;19;20026;-51
2022/12/25 05:52:34;;;;;;;104.00;37.97;;;8.40;99.90;;;;;;7367896;19;20347;-52
2022/12/25 05:55:01;;;;;;;105.97;38.95;;;8.40;99.90;;;;;;7368166;19;20821;-52
2022/12/25 05:57:28;;;;;;;104.70;39.05;;;8.40;99.90;;;;;;7367351;19;20015;-52
2022/12/25 05:59:55;;;;;;;100.85;39.17;;;8.40;99.90;;;;;;7366669;19;20029;-53
2022/12/25 06:02:23;;;;;;;108.75;40.35;;;8.40;99.90;;;;;;7366112;19;20038;-51
2022/12/25 06:04:49;;;;;;;116.53;41.65;;;8.50;99.90;;;;;;7367123;19;20450;-51
2022/12/25 06:07:16;;;;;;;107.50;39.97;;;8.50;99.90;;;;;;7367763;19;20018;-52
2022/12/25 06:09:42;;;;;;;108.93;40.00;;;8.50;99.90;;;;;;7365209;19;20052;-52
2022/12/25 06:12:09;;;;;;;97.30;39.33;;;8.60;99.90;;;;;;7362103;19;20082;-50
2022/12/25 06:14:35;;;;;;;104.13;38.80;;;8.50;99.90;;;;;;7366452;19;20028;-50
2022/12/25 06:17:04;;;;;;;104.43;38.75;;;8.60;99.90;;;;;;7364439;19;20051;-50
2022/12/25 06:19:43;;;;;;;95.20;35.92;;;8.60;99.90;;;;;;7363706;19;20430;-52
2022/12/25 06:22:09;;;;;;;105.28;39.75;;;8.70;99.90;;;;;;7367678;19;20078;-51
2022/12/25 06:24:36;;;;;;;112.07;39.67;;;8.60;99.90;;;;;;7367715;19;20018;-51
2022/12/25 06:27:03;;;;;;;97.75;38.85;;;8.70;99.90;;;;;;7364005;19;20747;-49
2022/12/25 06:29:32;;;;;;;101.95;40.28;;;8.60;99.90;;;;;;7364581;19;20472;-49
2022/12/25 06:31:58;;;;;;;105.75;40.50;;;8.70;99.90;;;;;;7361115;19;20726;-48
2022/12/25 06:34:25;;;;;;;100.43;39.05;;;8.70;99.90;;;;;;7361538;19;20027;-50
2022/12/25 06:36:53;;;;;;;98.22;39.42;;;8.70;99.90;;;;;;7363772;19;20440;-49
2022/12/25 06:39:24;;;;;;;92.90;35.97;;;8.70;99.90;;;;;;7361953;19;20026;-51
2022/12/25 06:41:50;;;;;;;96.68;38.08;;;8.70;99.90;;;;;;7360809;19;21733;-52
2022/12/25 06:44:16;;;;;;;96.68;35.85;;;8.70;99.90;;;;;;7365080;19;20014;-52
2022/12/25 06:46:46;;;;;;;82.65;35.30;;;8.60;99.90;;;;;;7362024;19;20018;-51
2022/12/25 06:49:12;;;;;;;93.07;37.45;;;8.60;99.90;;;;;;7364015;19;20767;-51
2022/12/25 06:51:39;;;;;;;90.05;36.05;;;8.60;99.90;;;;;;7358861;19;20369;-49
2022/12/25 06:54:05;;;;;;;88.57;35.72;;;8.60;99.90;;;;;;7365279;19;20023;-50
2022/12/25 06:56:32;;;;;;;87.90;35.42;;;8.50;99.90;;;;;;7361846;19;20021;-50
2022/12/25 06:59:05;;;;;;;87.60;35.28;;;8.50;99.90;;;;;;7363451;19;20443;-48
2022/12/25 07:01:35;;;;;;;89.43;34.95;;;8.50;99.90;;;;;;7361194;19;20018;-49
2022/12/25 07:04:10;;;;;;;89.65;35.13;;;8.60;99.90;;;;;;7366629;19;20018;-48
2022/12/25 07:06:36;;;;;;;83.30;32.35;;;8.60;99.90;;;;;;7365322;19;20018;-50
2022/12/25 07:09:03;;;;;;;76.25;32.55;;;8.60;99.90;;;;;;7361748;19;20338;-50
2022/12/25 07:11:30;;;;;;;75.80;34.90;;;8.60;99.90;;;;;;7352877;19;20133;-48
2022/12/25 07:13:56;;;;;;;79.32;33.88;;;8.60;99.90;;;;;;7358682;19;20031;-50
2022/12/25 07:16:22;;;;;;;75.40;32.45;;;8.60;99.90;;;;;;7363361;19;20120;-51
2022/12/25 07:18:49;;;;;;;67.65;30.55;;;8.60;99.90;;;;;;7360023;19;20050;-50
2022/12/25 07:21:17;;;;;;;64.82;29.77;;;8.60;99.90;;;;;;7361909;19;20019;-51
2022/12/25 07:23:52;;;;;;;58.17;28.02;;;8.60;99.90;;;;;;7361447;19;20609;-52
2022/12/25 07:26:25;;;;;;;59.97;25.70;;;8.50;99.90;;;;;;7361943;19;20014;-50
2022/12/25 07:28:54;;;;;;;57.55;27.42;;;8.60;99.90;;;;;;7362580;19;20035;-50
2022/12/25 07:31:22;;;;;;;66.70;27.30;;;8.60;99.90;;;;;;7361793;19;20006;-49
2022/12/25 07:33:52;;;;;;;54.10;25.63;;;8.50;99.90;;;;;;7361939;19;20027;-49
2022/12/25 07:36:18;;;;;;;56.13;25.50;;;8.60;99.90;;;;;;7359659;19;20068;-50
2022/12/25 07:38:48;;;;;;;45.22;23.48;;;8.60;99.90;;;;;;7364804;19;20351;-48
2022/12/25 07:41:15;;;;;;;53.15;23.83;;;8.50;99.90;;;;;;7361175;19;20624;-50
2022/12/25 07:43:42;;;;;;;49.80;22.98;;;8.60;99.90;;;;;;7362483;19;20074;-50
2022/12/25 07:46:09;;;;;;;49.38;22.65;;;8.50;99.90;;;;;;7356824;19;20024;-49
2022/12/25 07:48:35;;;;;;;47.70;21.75;;;8.50;99.90;;;;;;7358817;19;20019;-49
2022/12/25 07:51:09;;;;;;;41.58;21.15;;;8.50;99.90;;;;;;7361419;19;20035;-47
2022/12/25 07:53:36;;;;;;;52.75;23.52;;;8.50;99.90;;;;;;7359511;19;20022;-47
2022/12/25 07:56:10;;;;;;;41.85;21.38;;;8.50;99.90;;;;;;7358866;19;20021;-46
2022/12/25 07:58:37;;;;;;;45.95;21.20;;;8.50;99.90;;;;;;7359102;19;20527;-51
2022/12/25 08:01:16;;;;;;;42.92;21.65;;;8.50;99.90;;;;;;7356287;19;20022;-50
2022/12/25 08:03:43;;;;;;;38.65;20.15;;;8.50;99.90;;;;;;7356926;19;20074;-50
2022/12/25 08:06:10;;;;;;;37.30;21.13;;;8.50;99.90;;;;;;7356633;19;20018;-49
2022/12/25 08:08:38;;;;;;;34.22;19.73;;;8.50;99.90;;;;;;7354579;19;20027;-49
2022/12/25 08:11:07;;;;;;;33.60;19.00;;;8.50;99.90;;;;;;7363753;19;20058;-50
2022/12/25 08:13:34;;;;;;;36.65;19.27;;;8.50;99.90;;;;;;7361196;19;20381;-50
2022/12/25 08:16:04;;;;;;;35.15;17.48;;;8.50;99.90;;;;;;7365256;19;20010;-50
2022/12/25 08:18:31;;;;;;;36.53;18.67;;;8.50;99.90;;;;;;7365484;19;20568;-52
2022/12/25 08:21:07;;;;;;;33.60;17.08;;;8.50;99.90;;;;;;7365549;19;20029;-49
2022/12/25 08:23:35;;;;;;;37.17;20.00;;;8.60;99.90;;;;;;7366764;19;20525;-51
2022/12/25 08:26:02;;;;;;;33.03;18.73;;;8.50;99.90;;;;;;7365943;19;20019;-45
2022/12/25 08:28:33;;;;;;;32.90;18.40;;;8.50;99.90;;;;;;7363372;19;20037;-47
2022/12/25 08:31:21;;;;;;;33.72;18.52;;;8.50;99.90;;;;;;7361172;19;20014;-51
2022/12/25 08:33:50;;;;;;;33.70;18.83;;;8.50;99.90;;;;;;7366402;19;20014;-47
2022/12/25 08:36:17;;;;;;;30.95;17.77;;;8.50;99.90;;;;;;7364038;19;20525;-47
2022/12/25 08:38:49;;;;;;;32.20;18.95;;;8.50;99.90;;;;;;7365351;19;20019;-50
2022/12/25 08:41:21;;;;;;;35.97;18.90;;;8.50;99.90;;;;;;7362993;19;20102;-51
2022/12/25 08:43:48;;;;;;;36.58;18.02;;;8.60;99.90;;;;;;7361615;19;20616;-50
2022/12/25 08:46:15;;;;;;;30.00;18.60;;;8.50;99.90;;;;;;7362818;19;20109;-50
2022/12/25 08:48:42;;;;;;;34.33;17.50;;;8.50;99.90;;;;;;7364160;19;20033;-50
2022/12/25 08:51:15;;;;;;;24.13;17.17;;;8.60;99.90;;;;;;7365367;19;20018;-49
2022/12/25 08:53:46;;;;;;;33.40;17.27;;;8.60;99.90;;;;;;7368143;19;20029;-51
2022/12/25 08:56:17;;;;;;;29.40;16.77;;;8.60;99.90;;;;;;7368600;19;20630;-49
2022/12/25 08:58:43;;;;;;;32.40;16.92;;;8.60;99.90;;;;;;7366956;19;20014;-51
2022/12/25 09:01:11;;;;;;;30.35;16.70;;;8.70;99.90;;;;;;7366066;19;20018;-50
2022/12/25 09:03:41;;;;;;;28.15;15.60;;;8.70;99.90;;;;;;7367533;19;20023;-48
2022/12/25 09:06:11;;;;;;;26.67;14.57;;;8.70;99.90;;;;;;7362499;19;20382;-50
2022/12/25 09:08:38;;;;;;;30.52;16.42;;;8.70;99.90;;;;;;7364434;19;20026;-48
2022/12/25 09:11:10;;;;;;;27.90;15.40;;;8.70;99.90;;;;;;7364838;19;20042;-51
2022/12/25 09:13:38;;;;;;;31.70;16.08;;;8.70;99.90;;;;;;7365901;19;20014;-49
2022/12/25 09:16:11;;;;;;;26.35;14.27;;;8.70;99.90;;;;;;7366614;19;20498;-51
2022/12/25 09:18:37;;;;;;;28.10;13.90;;;8.80;99.90;;;;;;7364808;19;20038;-50
2022/12/25 09:21:09;;;;;;;29.13;15.43;;;8.80;99.90;;;;;;7366865;19;20027;-48
2022/12/25 09:23:36;;;;;;;26.85;14.30;;;8.80;99.90;;;;;;7363918;19;20022;-52
2022/12/25 09:26:05;;;;;;;21.15;14.10;;;8.80;99.90;;;;;;7365205;19;20010;-51
2022/12/25 09:28:32;;;;;;;29.73;15.00;;;8.80;99.90;;;;;;7362670;19;20026;-51
2022/12/25 09:31:00;;;;;;;22.67;13.82;;;8.90;99.90;;;;;;7361980;19;20582;-53
2022/12/25 09:33:26;;;;;;;24.98;14.98;;;8.90;99.90;;;;;;7363837;19;20489;-50
2022/12/25 09:35:57;;;;;;;26.67;15.07;;;8.90;99.90;;;;;;7362395;19;20026;-52
2022/12/25 09:38:25;;;;;;;21.95;15.30;;;8.90;99.90;;;;;;7361478;19;20541;-51
2022/12/25 09:41:00;;;;;;;24.30;15.05;;;8.90;99.90;;;;;;7369787;19;20022;-51
2022/12/25 09:43:30;;;;;;;25.60;14.52;;;8.90;99.90;;;;;;7371919;19;20018;-52
2022/12/25 09:45:59;;;;;;;23.00;14.15;;;8.90;99.90;;;;;;7371185;19;20053;-50
2022/12/25 09:48:29;;;;;;;21.42;14.45;;;9.00;99.90;;;;;;7372475;19;20094;-52
2022/12/25 09:51:12;;;;;;;27.65;14.55;;;9.00;99.90;;;;;;7372064;19;20482;-52
2022/12/25 09:53:42;;;;;;;26.58;14.90;;;9.00;99.90;;;;;;7372002;19;20022;-51
2022/12/25 09:56:15;;;;;;;21.40;13.43;;;9.00;99.90;;;;;;7372694;19;20466;-52
2022/12/25 09:58:42;;;;;;;24.05;13.65;;;9.10;99.90;;;;;;7370132;19;20020;-53
2022/12/25 10:01:11;;;;;;;22.75;13.73;;;9.10;99.90;;;;;;7373930;19;20046;-53
2022/12/25 10:03:58;;;;;;;22.35;13.40;;;9.10;99.90;;;;;;7373999;19;20045;-53
2022/12/25 10:06:39;;;;;;;21.23;12.95;;;9.10;99.90;;;;;;7369426;19;20077;-51
2022/12/25 10:09:25;;;;;;;24.20;13.10;;;9.20;99.90;;;;;;7372753;19;20470;-55
2022/12/25 10:11:58;;;;;;;21.00;12.32;;;9.20;99.90;;;;;;7370885;19;20027;-51
2022/12/25 10:14:36;;;;;;;22.40;13.85;;;9.20;99.90;;;;;;7376354;19;20022;-55
2022/12/25 10:17:21;;;;;;;22.00;12.70;;;9.20;99.90;;;;;;7373625;19;20486;-53
2022/12/25 10:20:09;;;;;;;21.42;13.63;;;9.20;99.90;;;;;;7372593;19;20473;-54
2022/12/25 10:22:58;;;;;;;21.20;13.50;;;9.20;99.90;;;;;;7371059;19;20049;-51
2022/12/25 10:25:25;;;;;;;21.73;12.93;;;9.20;99.90;;;;;;7372660;19;20026;-55
2022/12/25 10:27:59;;;;;;;20.95;12.98;;;9.30;99.90;;;;;;7374411;19;20442;-53
2022/12/25 10:30:27;;;;;;;22.10;13.20;;;9.30;99.90;;;;;;7373062;19;20490;-52
2022/12/25 10:32:56;;;;;;;19.70;12.95;;;9.30;99.90;;;;;;7368757;19;20625;-54
2022/12/25 10:35:25;;;;;;;19.95;12.20;;;9.30;99.90;;;;;;7372846;19;20018;-51
2022/12/25 10:38:00;;;;;;;25.13;13.13;;;9.30;99.90;;;;;;7371856;19;20033;-50
2022/12/25 10:40:55;;;;;;;20.45;12.27;;;9.30;99.90;;;;;;7370324;19;20026;-48
2022/12/25 10:43:41;;;;;;;21.85;13.30;;;9.30;99.90;;;;;;7371449;19;20033;-52
2022/12/25 10:46:10;;;;;;;22.33;12.90;;;9.30;99.90;;;;;;7373221;19;20026;-51
2022/12/25 10:48:42;;;;;;;18.05;11.65;;;9.40;99.90;;;;;;7371642;19;20024;-52
2022/12/25 10:51:10;;;;;;;19.50;12.10;;;9.40;99.90;;;;;;7371288;19;20018;-50
2022/12/25 10:53:44;;;;;;;20.90;12.30;;;9.40;99.90;;;;;;7372193;19;20389;-50
2022/12/25 10:56:16;;;;;;;21.27;11.80;;;9.50;99.90;;;;;;7370655;19;20029;-48
2022/12/25 10:58:43;;;;;;;20.50;12.23;;;9.50;99.90;;;;;;7368332;19;20017;-49
2022/12/25 11:01:10;;;;;;;24.27;13.15;;;9.50;99.90;;;;;;7369108;19;20022;-53
2022/12/25 11:03:39;;;;;;;16.80;11.88;;;9.60;99.90;;;;;;7371973;19;20025;-53
2022/12/25 11:06:27;;;;;;;22.33;12.07;;;9.60;99.90;;;;;;7372439;19;20556;-54
2022/12/25 11:08:57;;;;;;;20.15;11.35;;;9.60;99.90;;;;;;7372947;19;20487;-52
2022/12/25 11:11:24;;;;;;;17.45;12.25;;;9.60;99.90;;;;;;7369047;19;20018;-51
2022/12/25 11:13:55;;;;;;;19.65;12.60;;;9.70;99.90;;;;;;7370536;19;20021;-53
2022/12/25 11:16:40;;;;;;;16.73;12.52;;;9.70;99.90;;;;;;7370741;19;20283;-53
2022/12/25 11:19:39;;;;;;;22.67;12.82;;;9.70;99.90;;;;;;7369174;19;20018;-52
2022/12/25 11:22:17;;;;;;;23.73;12.70;;;9.70;99.90;;;;;;7369436;19;20022;-51
2022/12/25 11:24:43;;;;;;;22.80;13.43;;;9.70;99.90;;;;;;7370794;19;20026;-54
2022/12/25 11:27:26;;;;;;;25.50;14.23;;;9.70;99.90;;;;;;7367786;19;20022;-53
2022/12/25 11:30:04;;;;;;;22.08;13.52;;;9.70;99.90;;;;;;7367250;19;20093;-51
2022/12/25 11:32:33;;;;;;;21.05;13.73;;;9.70;99.90;;;;;;7369606;19;20926;-53
2022/12/25 11:35:01;;;;;;;22.13;13.73;;;9.70;99.90;;;;;;7370931;19;20022;-51
2022/12/25 11:37:45;;;;;;;25.55;13.82;;;9.70;99.90;;;;;;7371220;19;20041;-52
2022/12/25 11:40:28;;;;;;;28.70;15.75;;;9.80;99.90;;;;;;7372176;19;20085;-54
2022/12/25 11:43:20;;;;;;;26.25;15.52;;;9.80;99.90;;;;;;7369525;19;20413;-52
2022/12/25 11:45:58;;;;;;;23.90;15.60;;;9.90;99.90;;;;;;7366704;19;20018;-51
2022/12/25 11:48:32;;;;;;;28.08;16.50;;;9.90;99.90;;;;;;7366427;19;20473;-51
2022/12/25 11:51:01;;;;;;;26.13;15.88;;;10.00;99.90;;;;;;7365797;19;20081;-50
2022/12/25 11:53:53;;;;;;;29.30;17.17;;;10.00;99.90;;;;;;7370298;19;20560;-53
2022/12/25 11:56:25;;;;;;;24.83;17.25;;;10.00;99.90;;;;;;7368966;19;20874;-51
2022/12/25 11:58:52;;;;;;;28.50;17.38;;;10.00;99.90;;;;;;7363220;19;21703;-50
2022/12/25 12:01:30;;;;;;;30.05;16.70;;;10.00;99.90;;;;;;7367386;19;20481;-51
2022/12/25 12:04:00;;;;;;;28.83;17.27;;;10.00;99.90;;;;;;7364429;19;20023;-49
2022/12/25 12:06:58;;;;;;;25.75;16.77;;;9.90;99.90;;;;;;7366946;19;20038;-52
2022/12/25 12:09:49;;;;;;;33.13;17.38;;;9.90;99.90;;;;;;7368845;19;20051;-48
2022/12/25 12:12:39;;;;;;;25.75;17.95;;;9.90;99.90;;;;;;7364883;19;20029;-49
2022/12/25 12:15:28;;;;;;;29.45;18.02;;;9.90;99.90;;;;;;7362642;19;20407;-48
2022/12/25 12:18:06;;;;;;;25.52;18.20;;;9.80;99.90;;;;;;7368073;19;20030;-52
2022/12/25 12:20:35;;;;;;;22.95;16.00;;;9.90;99.90;;;;;;7355079;19;20556;-50
2022/12/25 12:23:12;;;;;;;27.10;16.98;;;9.80;99.90;;;;;;7358607;19;20018;-49
2022/12/25 12:25:43;;;;;;;26.52;16.70;;;9.90;99.90;;;;;;7361486;19;20011;-49
2022/12/25 12:28:20;;;;;;;22.20;15.07;;;9.90;99.90;;;;;;7360882;19;20372;-47
2022/12/25 12:31:03;;;;;;;20.67;14.70;;;9.90;99.90;;;;;;7363699;19;20015;-48
2022/12/25 12:33:35;;;;;;;29.58;16.65;;;9.80;99.90;;;;;;7363453;19;20018;-49
2022/12/25 12:36:04;;;;;;;23.65;14.30;;;9.80;99.90;;;;;;7361404;19;20112;-50
2022/12/25 12:38:32;;;;;;;20.85;14.27;;;9.80;99.90;;;;;;7365155;19;20746;-50
2022/12/25 12:41:01;;;;;;;19.92;14.00;;;9.90;99.90;;;;;;7361024;19;20018;-49
2022/12/25 12:43:45;;;;;;;28.02;14.15;;;9.80;99.90;;;;;;7362961;19;20109;-48
2022/12/25 12:46:23;;;;;;;22.60;13.10;;;9.80;99.90;;;;;;7363487;19;20022;-50
2022/12/25 12:49:05;;;;;;;27.17;13.52;;;9.80;99.90;;;;;;7363296;19;20587;-47
2022/12/25 12:51:35;;;;;;;22.02;13.93;;;9.90;99.90;;;;;;7364012;19;20062;-49
2022/12/25 12:54:20;;;;;;;20.83;13.65;;;9.90;99.90;;;;;;7366267;19;20386;-49
2022/12/25 12:57:04;;;;;;;21.60;14.88;;;9.90;99.90;;;;;;7366067;19;20052;-50
2022/12/25 12:59:45;;;;;;;25.20;14.00;;;9.90;99.90;;;;;;7371736;19;20470;-52
2022/12/25 13:02:12;;;;;;;20.35;12.40;;;9.90;99.90;;;;;;7372843;19;20026;-50
2022/12/25 13:04:55;;;;;;;25.48;13.52;;;9.90;99.90;;;;;;7367696;19;20770;-50
2022/12/25 13:07:52;;;;;;;22.88;13.05;;;9.80;99.90;;;;;;7373266;19;20022;-50
2022/12/25 13:10:40;;;;;;;19.77;12.23;;;9.80;99.90;;;;;;7369985;19;20014;-51
2022/12/25 13:13:26;;;;;;;21.33;12.40;;;9.80;99.90;;;;;;7370227;19;20608;-51
2022/12/25 13:15:56;;;;;;;21.35;12.57;;;9.80;99.90;;;;;;7368686;19;20010;-46
2022/12/25 13:18:23;;;;;;;23.70;13.43;;;9.80;99.90;;;;;;7369723;19;20099;-49
2022/12/25 13:21:01;;;;;;;20.85;11.90;;;9.70;99.90;;;;;;7369055;19;20389;-50
2022/12/25 13:23:33;;;;;;;20.85;12.43;;;9.70;99.90;;;;;;7365581;19;20018;-47
2022/12/25 13:26:11;;;;;;;23.70;13.20;;;9.70;99.90;;;;;;7369085;19;20026;-50
2022/12/25 13:28:38;;;;;;;20.65;13.10;;;9.70;99.90;;;;;;7368150;19;20750;-50
2022/12/25 13:31:25;;;;;;;21.45;12.85;;;9.70;99.90;;;;;;7363473;19;20584;-52
2022/12/25 13:33:55;;;;;;;20.83;12.80;;;9.70;99.90;;;;;;7361677;19;20014;-46
2022/12/25 13:36:23;;;;;;;26.42;14.45;;;9.70;99.90;;;;;;7364118;19;20020;-49
2022/12/25 13:38:52;;;;;;;22.83;14.07;;;9.70;99.90;;;;;;7366631;19;20483;-51
2022/12/25 13:44:24;;;;;;;25.42;15.63;;;9.60;99.90;;;;;;7362345;19;20388;-48
2022/12/25 13:46:51;;;;;;;22.45;15.50;;;9.60;99.90;;;;;;7357404;19;20022;-47
2022/12/25 13:49:23;;;;;;;24.60;15.93;;;9.60;99.90;;;;;;7364848;19;20548;-48
2022/12/25 13:51:49;;;;;;;25.17;15.38;;;9.60;99.90;;;;;;7355937;19;20014;-49
2022/12/25 13:54:17;;;;;;;26.17;16.45;;;9.50;99.90;;;;;;7363723;19;20030;-51
2022/12/25 13:56:53;;;;;;;22.23;16.13;;;9.50;99.90;;;;;;7359692;19;20041;-47
2022/12/25 13:59:24;;;;;;;25.98;16.55;;;9.50;99.90;;;;;;7359818;19;20021;-47
2022/12/25 14:01:52;;;;;;;28.55;17.38;;;9.50;99.90;;;;;;7360101;19;20252;-50
2022/12/25 14:04:22;;;;;;;25.13;17.45;;;9.50;99.90;;;;;;7365970;19;20418;-49
2022/12/25 14:06:50;;;;;;;26.92;17.40;;;9.40;99.90;;;;;;7356239;19;20347;-49
2022/12/25 14:09:18;;;;;;;26.75;18.17;;;9.50;99.90;;;;;;7360910;19;20429;-50
2022/12/25 14:11:48;;;;;;;32.03;18.48;;;9.40;99.90;;;;;;7358085;19;20399;-50
2022/12/25 14:14:18;;;;;;;30.17;20.30;;;9.40;99.90;;;;;;7357480;19;20022;-51
2022/12/25 14:16:48;;;;;;;28.25;21.25;;;9.40;99.90;;;;;;7357219;19;20596;-51
2022/12/25 14:19:28;;;;;;;29.67;22.30;;;9.40;99.90;;;;;;7365965;19;20031;-51
2022/12/25 14:22:03;;;;;;;34.30;23.52;;;9.40;99.90;;;;;;7365641;19;20018;-51
2022/12/25 14:24:39;;;;;;;29.90;22.38;;;9.40;99.90;;;;;;7370381;19;20022;-49
2022/12/25 14:27:38;;;;;;;33.75;23.25;;;9.40;99.90;;;;;;7368978;19;20018;-50
2022/12/25 14:30:12;;;;;;;34.40;25.25;;;9.40;99.90;;;;;;7365460;19;20029;-49
2022/12/25 14:32:45;;;;;;;35.50;24.15;;;9.40;99.90;;;;;;7363848;19;20022;-51
2022/12/25 14:35:13;;;;;;;32.42;24.67;;;9.40;99.90;;;;;;7366221;19;20457;-51
2022/12/25 14:37:41;;;;;;;37.35;25.30;;;9.40;99.90;;;;;;7369185;19;20006;-50
2022/12/25 14:40:18;;;;;;;34.03;24.75;;;9.40;99.90;;;;;;7366007;19;20033;-51